Alma, West Virginia
Current Conditions -  °F | °C
As of 6:53 PM on Monday 24 Nov 2014 (Local Time) from KPKB Reporting Station
Clear Clear  
Wind Chill: 54°   Ceiling: Unl
Heat Index: 54°   Visibility: 10mi
Dew Point: 36°   Wind: 13mph
Humidity: 51%   Direction: 270°W
Pressure: 29.77"   Gusts: 17mph
Location:  39.43°N, 80.84°W
Report Text: KPKB 242353Z 27011G15KT 10SM CLR 12/02 A2977 RMK AO2 SLP078 T01220022 10211 20122 51049
Loading
Personal Weather Stations






























Interactive Weather Map New forecast layout! Learn more

10-Day Weather Forecast

Advertisements
Track Severe Weather on mobile